createdAt,value
2019-01-14T06:03:19.293Z,94722.00
2019-01-14T06:06:31.887Z,94721.00
2019-01-14T06:09:25.249Z,94713.00
2019-01-14T06:12:18.544Z,94733.00
2019-01-14T06:15:14.899Z,94720.00
2019-01-14T06:18:07.548Z,94730.00
2019-01-14T06:21:01.013Z,94715.00
2019-01-14T06:23:54.267Z,94741.00
2019-01-14T06:26:47.400Z,94753.00
2019-01-14T06:29:40.369Z,94768.00
2019-01-14T06:32:33.694Z,94773.00
2019-01-14T06:35:28.503Z,94784.00
2019-01-14T14:54:48.727Z,95472.00
2019-01-14T14:57:42.022Z,95467.00
2019-01-14T15:00:34.789Z,95463.00
2019-01-14T15:03:27.795Z,95469.00
2019-01-14T15:06:21.095Z,95475.00
2019-01-14T15:09:14.128Z,95479.00
2019-01-14T15:12:07.015Z,95482.00
2019-01-14T15:15:00.594Z,95451.00
2019-01-14T15:17:53.858Z,95469.00
2019-01-14T15:20:47.275Z,95469.00
2019-01-14T15:23:40.532Z,95461.00
2019-01-14T15:26:34.091Z,95466.00
2019-01-14T15:29:27.055Z,95475.00
2019-01-14T15:32:20.290Z,95473.00
2019-01-14T15:35:13.266Z,95473.00
2019-01-14T15:38:06.470Z,95470.00
2019-01-14T15:40:59.235Z,95478.00
2019-01-14T15:43:52.644Z,95480.00
2019-01-14T15:46:45.688Z,95477.00
2019-01-14T15:49:38.764Z,95492.00
2019-01-14T15:52:31.516Z,95473.00
2019-01-14T15:55:25.890Z,95494.00
2019-01-14T15:58:55.827Z,95499.00
2019-01-14T16:01:49.093Z,95501.00
2019-01-14T16:04:42.307Z,95507.00
2019-01-14T16:07:35.667Z,95512.00
2019-01-14T16:10:29.224Z,95530.00
2019-01-14T16:13:22.036Z,95515.00
2019-01-14T16:16:15.369Z,95517.00
2019-01-14T16:19:08.623Z,95514.00
2019-01-14T16:22:01.860Z,95532.00
2019-01-14T16:24:55.049Z,95528.00
2019-01-14T16:27:48.412Z,95525.00
2019-01-14T16:32:53.444Z,95542.00
2019-01-14T16:35:46.248Z,95537.00
2019-01-14T16:38:39.442Z,95533.00
2019-01-14T16:41:32.706Z,95551.00
2019-01-14T16:44:25.682Z,95551.00
2019-01-14T16:47:18.611Z,95554.00
2019-01-14T16:50:14.114Z,95544.00
2019-01-14T16:53:06.818Z,95559.00
2019-01-14T16:56:00.473Z,95575.00
2019-01-14T16:58:53.465Z,95596.00
2019-01-14T17:01:46.040Z,95595.00
2019-01-14T17:04:38.822Z,95594.00
2019-01-14T17:07:32.071Z,95588.00
2019-01-14T17:10:25.513Z,95601.00
2019-01-14T17:13:18.490Z,95596.00
2019-01-14T17:16:11.303Z,95597.00
2019-01-14T17:19:04.618Z,95588.00
2019-01-14T17:21:57.845Z,95586.00
2019-01-14T17:24:50.931Z,95592.00
2019-01-14T17:27:45.199Z,95592.00
2019-01-14T17:30:38.815Z,95619.00
2019-01-14T17:33:32.301Z,95639.00
2019-01-14T17:36:25.841Z,95651.00
2019-01-14T17:39:19.069Z,95666.00
2019-01-14T17:42:12.565Z,95680.00
2019-01-14T17:45:09.179Z,95675.00
2019-01-14T17:48:02.071Z,95683.00
2019-01-14T17:50:55.304Z,95699.00
2019-01-14T17:53:47.758Z,95693.00
2019-01-14T17:56:40.650Z,95689.00
2019-01-14T17:59:35.393Z,95720.00
2019-01-14T18:02:28.688Z,95756.00
2019-01-14T18:05:21.866Z,95763.00
2019-01-14T18:08:14.898Z,95761.00
2019-01-14T18:11:07.610Z,95771.00
2019-01-14T18:14:00.889Z,95775.00
2019-01-14T18:16:54.131Z,95784.00
2019-01-14T18:19:47.040Z,95790.00
2019-01-14T18:22:40.275Z,95797.00
2019-01-14T18:25:33.472Z,95806.00
2019-01-14T18:28:26.193Z,95798.00
2019-01-14T18:31:19.298Z,95819.00
2019-01-14T18:34:12.795Z,95828.00
2019-01-14T18:37:06.036Z,95823.00
2019-01-14T18:39:59.238Z,95838.00
2019-01-14T18:42:52.366Z,95839.00
2019-01-14T18:45:45.440Z,95850.00
2019-01-14T18:48:38.337Z,95861.00
2019-01-14T18:51:31.362Z,95864.00
2019-01-14T18:54:23.839Z,95874.00
2019-01-14T18:57:17.169Z,95894.00
2019-01-14T19:00:15.447Z,95898.00
2019-01-14T19:03:08.922Z,95915.00
2019-01-14T19:06:01.678Z,95922.00
2019-01-14T19:08:55.018Z,95927.00
2019-01-14T19:11:48.422Z,95923.00
2019-01-14T19:14:40.878Z,95936.00
2019-01-14T19:17:53.571Z,95940.00
2019-01-14T19:20:46.647Z,95956.00
2019-01-14T19:23:39.998Z,95959.00
2019-01-14T19:26:33.461Z,95970.00
2019-01-14T19:29:27.014Z,95975.00
2019-01-14T19:32:20.105Z,95981.00
2019-01-14T19:35:12.797Z,95998.00
2019-01-14T19:38:06.032Z,96004.00
2019-01-14T19:41:02.042Z,96007.00
2019-01-14T19:43:53.570Z,96005.00
2019-01-14T19:46:46.555Z,96030.00
2019-01-14T19:49:39.519Z,96029.00
2019-01-14T19:52:32.776Z,96033.00
2019-01-14T19:55:26.226Z,96034.00
2019-01-14T19:58:19.705Z,96049.00
2019-01-14T20:01:12.470Z,96042.00
2019-01-14T20:04:05.477Z,96059.00
2019-01-14T20:06:58.680Z,96056.00
2019-01-14T20:09:51.962Z,96052.00
2019-01-14T20:12:45.306Z,96068.00
2019-01-14T20:15:38.644Z,96068.00
2019-01-14T20:18:31.917Z,96077.00
2019-01-14T20:21:24.938Z,96083.00
2019-01-14T20:24:17.991Z,96080.00
2019-01-14T20:27:11.299Z,96080.00
2019-01-14T20:30:08.044Z,96095.00
2019-01-14T20:33:01.101Z,96098.00
2019-01-14T20:35:55.765Z,96105.00
2019-01-14T20:38:48.995Z,96114.00
2019-01-14T20:41:42.277Z,96118.00
2019-01-14T20:44:34.959Z,96120.00
2019-01-14T20:47:28.183Z,96111.00
2019-01-14T20:50:22.314Z,96109.00
2019-01-14T20:53:15.633Z,96132.00
2019-01-14T20:56:08.583Z,96133.00
2019-01-14T20:59:01.884Z,96128.00
2019-01-14T21:01:54.866Z,96129.00
2019-01-14T21:04:48.013Z,96132.00
2019-01-14T21:07:41.170Z,96129.00
2019-01-14T21:10:34.469Z,96140.00
2019-01-14T21:13:27.234Z,96139.00
2019-01-14T21:16:20.427Z,96140.00
2019-01-14T21:19:13.478Z,96144.00
2019-01-14T21:22:06.398Z,96153.00
2019-01-14T21:24:59.610Z,96153.00
2019-01-14T21:27:53.135Z,96150.00
2019-01-14T21:30:46.815Z,96158.00
2019-01-14T21:33:40.290Z,96161.00
2019-01-14T21:36:33.469Z,96165.00
2019-01-14T21:39:26.325Z,96169.00
2019-01-14T21:42:19.048Z,96181.00
2019-01-14T21:45:14.109Z,96182.00
2019-01-14T21:48:06.823Z,96178.00
2019-01-14T21:51:00.392Z,96176.00
2019-01-14T21:53:53.671Z,96185.00
2019-01-14T21:56:46.724Z,96185.00
2019-01-14T21:59:40.134Z,96191.00
2019-01-14T22:02:33.553Z,96191.00
2019-01-14T22:05:26.336Z,96195.00
2019-01-14T22:08:19.300Z,96188.00
2019-01-14T22:11:12.114Z,96184.00
2019-01-14T22:14:05.284Z,96192.00
2019-01-14T22:16:58.366Z,96193.00
2019-01-14T22:19:51.333Z,96193.00
2019-01-14T22:22:44.564Z,96185.00
2019-01-14T22:25:37.791Z,96176.00
2019-01-14T22:28:30.794Z,96180.00
2019-01-14T22:31:23.698Z,96199.00
2019-01-14T22:34:17.104Z,96184.00
2019-01-14T22:37:10.670Z,96181.00
2019-01-14T22:40:07.449Z,96184.00
2019-01-14T22:43:00.288Z,96194.00
2019-01-14T22:45:55.897Z,96201.00
2019-01-14T22:48:48.604Z,96193.00
2019-01-14T22:51:41.848Z,96197.00
2019-01-14T22:54:35.075Z,96193.00
2019-01-14T22:57:28.142Z,96198.00
2019-01-14T23:00:47.216Z,96198.00
2019-01-14T23:03:40.302Z,96189.00
2019-01-14T23:06:33.797Z,96199.00
2019-01-14T23:09:26.718Z,96204.00
